JAL564 RJCM-RJTT
Flight info
| Callsign | JAL564 |
|---|---|
| Flight time | 1h 39m |
| Altitude | 30000 |
| Route | MENIB Y112 OMGOL Y111 MQE Y106 RUBIS Y10 GODIN |
| Aircraft | B738/M-SDE2E3FGHIRWXY/LB1 |
Departure
| Time | 2026-05-06 02:54 |
|---|---|
| Airport | Memanbetsu Airport (RJCM) |
Arrival
| Time | 2026-05-06 04:34 |
|---|---|
| Airport | Tokyo Haneda International Airport (RJTT) |
| Time | Latitude | Longitude | Altitude | Speed | Heading |
|---|---|---|---|---|---|
| 2026-05-06 02:32 | 43.88153 | 144.15967 | 126 ft | 0 kts | 264° |
| 2026-05-06 02:46 | 43.88153 | 144.15968 | 126 ft | 0 kts | 264° |
| 2026-05-06 02:46 | 43.88154 | 144.15988 | 126 ft | 2 kts | 266° |
| 2026-05-06 02:46 | 43.88155 | 144.16010 | 126 ft | 2 kts | 265° |
| 2026-05-06 02:47 | 43.88157 | 144.16029 | 126 ft | 2 kts | 265° |
| 2026-05-06 02:47 | 43.88158 | 144.16051 | 126 ft | 2 kts | 265° |
| 2026-05-06 02:47 | 43.88159 | 144.16064 | 126 ft | 2 kts | 263° |
| 2026-05-06 02:47 | 43.88166 | 144.16083 | 125 ft | 2 kts | 226° |
| 2026-05-06 02:48 | 43.88178 | 144.16095 | 125 ft | 2 kts | 199° |
| 2026-05-06 02:48 | 43.88190 | 144.16098 | 124 ft | 0 kts | 178° |
| 2026-05-06 02:48 | 43.88197 | 144.16097 | 124 ft | 0 kts | 174° |
| 2026-05-06 02:50 | 43.88195 | 144.16098 | 124 ft | 2 kts | 175° |
| 2026-05-06 02:50 | 43.88133 | 144.16133 | 125 ft | 15 kts | 154° |
| 2026-05-06 02:50 | 43.88035 | 144.16177 | 124 ft | 15 kts | 173° |
| 2026-05-06 02:50 | 43.87911 | 144.16193 | 121 ft | 20 kts | 174° |
| 2026-05-06 02:51 | 43.87749 | 144.16213 | 121 ft | 23 kts | 175° |
| 2026-05-06 02:51 | 43.87591 | 144.16234 | 122 ft | 21 kts | 174° |
| 2026-05-06 02:51 | 43.87452 | 144.16254 | 125 ft | 18 kts | 174° |
| 2026-05-06 02:51 | 43.87315 | 144.16270 | 129 ft | 20 kts | 176° |
| 2026-05-06 02:52 | 43.87183 | 144.16284 | 133 ft | 17 kts | 176° |
| 2026-05-06 02:52 | 43.87075 | 144.16299 | 136 ft | 13 kts | 174° |
| 2026-05-06 02:52 | 43.86979 | 144.16319 | 138 ft | 13 kts | 156° |
| 2026-05-06 02:52 | 43.86943 | 144.16425 | 138 ft | 12 kts | 88° |
| 2026-05-06 02:53 | 43.86966 | 144.16530 | 137 ft | 10 kts | 37° |
| 2026-05-06 02:53 | 43.87036 | 144.16536 | 137 ft | 9 kts | 356° |
| 2026-05-06 02:53 | 43.87086 | 144.16531 | 137 ft | 0 kts | 355° |
| 2026-05-06 02:53 | 43.87089 | 144.16530 | 137 ft | 5 kts | 355° |
| 2026-05-06 02:54 | 43.87235 | 144.16511 | 132 ft | 43 kts | 353° |
| 2026-05-06 02:54 | 43.87828 | 144.16429 | 116 ft | 122 kts | 355° |
| 2026-05-06 02:54 | 43.88886 | 144.16295 | 134 ft | 180 kts | 351° |
| 2026-05-06 02:54 | 43.90107 | 144.16147 | 1006 ft | 168 kts | 353° |
| 2026-05-06 02:55 | 43.91264 | 144.16060 | 1685 ft | 176 kts | 2° |
| 2026-05-06 02:55 | 43.92467 | 144.16502 | 2161 ft | 187 kts | 33° |
| 2026-05-06 02:55 | 43.93223 | 144.18037 | 2534 ft | 204 kts | 77° |
| 2026-05-06 02:55 | 43.93159 | 144.20070 | 2909 ft | 221 kts | 107° |
| 2026-05-06 02:56 | 43.92410 | 144.22003 | 3333 ft | 235 kts | 127° |
| 2026-05-06 02:56 | 43.91383 | 144.23895 | 3724 ft | 254 kts | 127° |
| 2026-05-06 02:56 | 43.90327 | 144.25980 | 4136 ft | 272 kts | 125° |
| 2026-05-06 02:56 | 43.89237 | 144.28200 | 4644 ft | 284 kts | 128° |
| 2026-05-06 02:57 | 43.87897 | 144.30231 | 5309 ft | 286 kts | 147° |
| 2026-05-06 02:57 | 43.86122 | 144.31430 | 6035 ft | 282 kts | 167° |
| 2026-05-06 02:57 | 43.84230 | 144.32156 | 6782 ft | 283 kts | 172° |
| 2026-05-06 02:57 | 43.82317 | 144.32843 | 7507 ft | 287 kts | 172° |
| 2026-05-06 02:58 | 43.80379 | 144.33603 | 8215 ft | 293 kts | 171° |
| 2026-05-06 02:58 | 43.78392 | 144.34444 | 8943 ft | 298 kts | 171° |
| 2026-05-06 02:58 | 43.76428 | 144.35304 | 9722 ft | 302 kts | 171° |
| 2026-05-06 02:58 | 43.74371 | 144.36212 | 10436 ft | 309 kts | 171° |
| 2026-05-06 02:59 | 43.72288 | 144.37128 | 10970 ft | 321 kts | 171° |
| 2026-05-06 02:59 | 43.70081 | 144.38091 | 11458 ft | 335 kts | 170° |
| 2026-05-06 02:59 | 43.67833 | 144.39072 | 11869 ft | 350 kts | 170° |
| 2026-05-06 02:59 | 43.65453 | 144.40111 | 12314 ft | 365 kts | 169° |
| 2026-05-06 03:00 | 43.62954 | 144.41203 | 12802 ft | 378 kts | 169° |
| 2026-05-06 03:00 | 43.60442 | 144.42310 | 13609 ft | 380 kts | 169° |
| 2026-05-06 03:00 | 43.57901 | 144.43434 | 14483 ft | 382 kts | 169° |
| 2026-05-06 03:00 | 43.55371 | 144.44548 | 15212 ft | 387 kts | 168° |
| 2026-05-06 03:01 | 43.52786 | 144.45671 | 16008 ft | 389 kts | 169° |
| 2026-05-06 03:01 | 43.50158 | 144.46664 | 16771 ft | 389 kts | 173° |
| 2026-05-06 03:01 | 43.47485 | 144.47266 | 17456 ft | 388 kts | 180° |
| 2026-05-06 03:01 | 43.44770 | 144.47492 | 18239 ft | 387 kts | 185° |
| 2026-05-06 03:02 | 43.42068 | 144.47519 | 18894 ft | 390 kts | 187° |
| 2026-05-06 03:02 | 43.39345 | 144.47472 | 19510 ft | 394 kts | 187° |
| 2026-05-06 03:02 | 43.36567 | 144.47420 | 20161 ft | 398 kts | 187° |
| 2026-05-06 03:02 | 43.33773 | 144.47382 | 20763 ft | 403 kts | 187° |
| 2026-05-06 03:03 | 43.30998 | 144.47357 | 21375 ft | 406 kts | 187° |
| 2026-05-06 03:03 | 43.28108 | 144.47340 | 21928 ft | 410 kts | 186° |
| 2026-05-06 03:03 | 43.25249 | 144.47333 | 22542 ft | 413 kts | 186° |
| 2026-05-06 03:03 | 43.22388 | 144.47330 | 23042 ft | 418 kts | 186° |
| 2026-05-06 03:04 | 43.19440 | 144.47330 | 23626 ft | 421 kts | 187° |
| 2026-05-06 03:04 | 43.16510 | 144.47331 | 24103 ft | 426 kts | 186° |
| 2026-05-06 03:04 | 43.13549 | 144.47336 | 24673 ft | 428 kts | 186° |
| 2026-05-06 03:04 | 43.10544 | 144.47339 | 25197 ft | 431 kts | 186° |
| 2026-05-06 03:05 | 43.07527 | 144.47343 | 25654 ft | 435 kts | 186° |
| 2026-05-06 03:05 | 43.04489 | 144.47330 | 26166 ft | 437 kts | 187° |
| 2026-05-06 03:05 | 43.01426 | 144.47136 | 26628 ft | 437 kts | 191° |
| 2026-05-06 03:05 | 42.98412 | 144.46632 | 27108 ft | 437 kts | 195° |
| 2026-05-06 03:06 | 42.95434 | 144.45946 | 27576 ft | 438 kts | 196° |
| 2026-05-06 03:06 | 42.92439 | 144.45165 | 28166 ft | 437 kts | 197° |
| 2026-05-06 03:06 | 42.89444 | 144.44356 | 28935 ft | 432 kts | 197° |
| 2026-05-06 03:06 | 42.86503 | 144.43555 | 29467 ft | 432 kts | 197° |
| 2026-05-06 03:07 | 42.83582 | 144.42764 | 29914 ft | 432 kts | 197° |
| 2026-05-06 03:07 | 42.77616 | 144.41173 | 29965 ft | 433 kts | 197° |
| 2026-05-06 03:08 | 42.71703 | 144.39633 | 29974 ft | 434 kts | 196° |
| 2026-05-06 03:08 | 42.65754 | 144.38101 | 29977 ft | 432 kts | 196° |
| 2026-05-06 03:09 | 42.59853 | 144.36587 | 29991 ft | 434 kts | 196° |
| 2026-05-06 03:09 | 42.53912 | 144.35065 | 29998 ft | 433 kts | 196° |
| 2026-05-06 03:10 | 42.48117 | 144.33075 | 30008 ft | 430 kts | 201° |
| 2026-05-06 03:10 | 42.42402 | 144.30644 | 29998 ft | 428 kts | 203° |
| 2026-05-06 03:11 | 42.36726 | 144.28194 | 30006 ft | 428 kts | 202° |
| 2026-05-06 03:11 | 42.31072 | 144.25795 | 30013 ft | 429 kts | 202° |
| 2026-05-06 03:12 | 42.25346 | 144.23407 | 30026 ft | 430 kts | 201° |
| 2026-05-06 03:12 | 42.19659 | 144.21056 | 30038 ft | 431 kts | 201° |
| 2026-05-06 03:13 | 42.13951 | 144.18704 | 30031 ft | 429 kts | 201° |
| 2026-05-06 03:13 | 42.08225 | 144.16353 | 30041 ft | 432 kts | 201° |
| 2026-05-06 03:14 | 42.02490 | 144.14003 | 30042 ft | 430 kts | 201° |
| 2026-05-06 03:14 | 41.96737 | 144.11655 | 30049 ft | 430 kts | 201° |
| 2026-05-06 03:15 | 41.91029 | 144.09328 | 30057 ft | 431 kts | 201° |
| 2026-05-06 03:15 | 41.85265 | 144.06981 | 30053 ft | 431 kts | 201° |
| 2026-05-06 03:16 | 41.79533 | 144.04648 | 30060 ft | 430 kts | 201° |
| 2026-05-06 03:16 | 41.73850 | 144.02341 | 30052 ft | 431 kts | 201° |
| 2026-05-06 03:17 | 41.68128 | 144.00024 | 30063 ft | 432 kts | 201° |
| 2026-05-06 03:17 | 41.62596 | 143.97790 | 30072 ft | 430 kts | 201° |
| 2026-05-06 03:18 | 41.56849 | 143.95471 | 30079 ft | 432 kts | 201° |
| 2026-05-06 03:18 | 41.51152 | 143.93178 | 30071 ft | 429 kts | 201° |
| 2026-05-06 03:19 | 41.45410 | 143.90872 | 30075 ft | 431 kts | 201° |
| 2026-05-06 03:19 | 41.39689 | 143.88576 | 30073 ft | 430 kts | 201° |
| 2026-05-06 03:20 | 41.31132 | 143.85147 | 30086 ft | 431 kts | 201° |
| 2026-05-06 03:20 | 41.25409 | 143.82857 | 30087 ft | 430 kts | 201° |
| 2026-05-06 03:21 | 41.19695 | 143.80576 | 30086 ft | 429 kts | 201° |
| 2026-05-06 03:21 | 41.13969 | 143.78291 | 30094 ft | 430 kts | 201° |
| 2026-05-06 03:22 | 41.08236 | 143.76012 | 30101 ft | 429 kts | 201° |
| 2026-05-06 03:22 | 41.02518 | 143.73738 | 30101 ft | 429 kts | 201° |
| 2026-05-06 03:23 | 40.96796 | 143.71469 | 30105 ft | 429 kts | 201° |
| 2026-05-06 03:23 | 40.91131 | 143.69229 | 30109 ft | 428 kts | 201° |
| 2026-05-06 03:24 | 40.85422 | 143.66974 | 30102 ft | 428 kts | 201° |
| 2026-05-06 03:24 | 40.79829 | 143.64414 | 30106 ft | 422 kts | 210° |
| 2026-05-06 03:25 | 40.75151 | 143.60023 | 30108 ft | 413 kts | 228° |
| 2026-05-06 03:25 | 40.71542 | 143.54182 | 30105 ft | 410 kts | 237° |
| 2026-05-06 03:26 | 40.68304 | 143.48015 | 30108 ft | 409 kts | 238° |
| 2026-05-06 03:26 | 40.65140 | 143.41867 | 30109 ft | 410 kts | 238° |
| 2026-05-06 03:27 | 40.61935 | 143.35687 | 30109 ft | 410 kts | 238° |
| 2026-05-06 03:27 | 40.58863 | 143.29808 | 30106 ft | 408 kts | 237° |
| 2026-05-06 03:28 | 40.55641 | 143.23671 | 30104 ft | 410 kts | 237° |
| 2026-05-06 03:28 | 40.52420 | 143.17558 | 30109 ft | 409 kts | 237° |
| 2026-05-06 03:29 | 40.49190 | 143.11440 | 30104 ft | 408 kts | 237° |
| 2026-05-06 03:29 | 40.45946 | 143.05306 | 30100 ft | 409 kts | 237° |
| 2026-05-06 03:30 | 40.42718 | 142.99220 | 30102 ft | 408 kts | 237° |
| 2026-05-06 03:30 | 40.39506 | 142.93170 | 30098 ft | 409 kts | 237° |
| 2026-05-06 03:31 | 40.36345 | 142.87233 | 30102 ft | 408 kts | 237° |
| 2026-05-06 03:31 | 40.33215 | 142.81363 | 30095 ft | 408 kts | 237° |
| 2026-05-06 03:32 | 40.30005 | 142.75356 | 30097 ft | 407 kts | 237° |
| 2026-05-06 03:32 | 40.26829 | 142.69421 | 30098 ft | 406 kts | 237° |
| 2026-05-06 03:33 | 40.23633 | 142.63461 | 30101 ft | 406 kts | 237° |
| 2026-05-06 03:33 | 40.20403 | 142.57446 | 30097 ft | 405 kts | 237° |
| 2026-05-06 03:34 | 40.17187 | 142.51471 | 30099 ft | 405 kts | 237° |
| 2026-05-06 03:34 | 40.13922 | 142.45416 | 30101 ft | 406 kts | 237° |
| 2026-05-06 03:35 | 40.10704 | 142.39464 | 30092 ft | 405 kts | 237° |
| 2026-05-06 03:35 | 40.07528 | 142.33598 | 30098 ft | 406 kts | 236° |
| 2026-05-06 03:36 | 40.04312 | 142.27670 | 30095 ft | 406 kts | 236° |
| 2026-05-06 03:36 | 40.01057 | 142.21680 | 30091 ft | 406 kts | 236° |
| 2026-05-06 03:37 | 39.97800 | 142.15697 | 30077 ft | 402 kts | 236° |
| 2026-05-06 03:37 | 39.94561 | 142.09761 | 30115 ft | 401 kts | 236° |
| 2026-05-06 03:38 | 39.91305 | 142.03799 | 30089 ft | 402 kts | 236° |
| 2026-05-06 03:38 | 39.87999 | 141.98022 | 30095 ft | 400 kts | 232° |
| 2026-05-06 03:39 | 39.83630 | 141.93315 | 30100 ft | 410 kts | 214° |
| 2026-05-06 03:39 | 39.78476 | 141.89952 | 30081 ft | 412 kts | 210° |
| 2026-05-06 03:40 | 39.73243 | 141.86855 | 30082 ft | 409 kts | 210° |
| 2026-05-06 03:40 | 39.68034 | 141.83760 | 30124 ft | 411 kts | 210° |
| 2026-05-06 03:41 | 39.62838 | 141.80635 | 30109 ft | 405 kts | 210° |
| 2026-05-06 03:41 | 39.57711 | 141.77537 | 30133 ft | 403 kts | 210° |
| 2026-05-06 03:42 | 39.52700 | 141.74503 | 30128 ft | 400 kts | 211° |
| 2026-05-06 03:42 | 39.47810 | 141.71541 | 30134 ft | 401 kts | 211° |
| 2026-05-06 03:43 | 39.43093 | 141.68683 | 30144 ft | 401 kts | 211° |
| 2026-05-06 03:43 | 39.38248 | 141.65758 | 30102 ft | 397 kts | 211° |
| 2026-05-06 03:44 | 39.33335 | 141.62796 | 30129 ft | 400 kts | 211° |
| 2026-05-06 03:45 | 39.23996 | 141.57176 | 30128 ft | 397 kts | 211° |
| 2026-05-06 03:45 | 39.19360 | 141.54393 | 30132 ft | 397 kts | 211° |
| 2026-05-06 03:46 | 39.14422 | 141.51440 | 30133 ft | 391 kts | 211° |
| 2026-05-06 03:46 | 39.09468 | 141.48480 | 30125 ft | 392 kts | 211° |
| 2026-05-06 03:47 | 39.04532 | 141.45532 | 30142 ft | 391 kts | 211° |
| 2026-05-06 03:47 | 38.99604 | 141.42587 | 30124 ft | 390 kts | 211° |
| 2026-05-06 03:48 | 38.94677 | 141.39661 | 30119 ft | 389 kts | 211° |
| 2026-05-06 03:48 | 38.89795 | 141.36758 | 30111 ft | 384 kts | 212° |
| 2026-05-06 03:49 | 38.84917 | 141.33855 | 30106 ft | 386 kts | 212° |
| 2026-05-06 03:49 | 38.80067 | 141.30986 | 30103 ft | 388 kts | 212° |
| 2026-05-06 03:50 | 38.75193 | 141.28105 | 30113 ft | 383 kts | 211° |
| 2026-05-06 03:50 | 38.70386 | 141.25266 | 30110 ft | 385 kts | 212° |
| 2026-05-06 03:51 | 38.65532 | 141.22394 | 30098 ft | 381 kts | 213° |
| 2026-05-06 03:51 | 38.60733 | 141.19571 | 30110 ft | 379 kts | 213° |
| 2026-05-06 03:52 | 38.55910 | 141.16725 | 30100 ft | 378 kts | 212° |
| 2026-05-06 03:52 | 38.51159 | 141.13942 | 30111 ft | 374 kts | 212° |
| 2026-05-06 03:53 | 38.46381 | 141.11137 | 30100 ft | 377 kts | 212° |
| 2026-05-06 03:53 | 38.41652 | 141.08375 | 30108 ft | 374 kts | 213° |
| 2026-05-06 03:54 | 38.36922 | 141.05598 | 30117 ft | 375 kts | 213° |
| 2026-05-06 03:54 | 38.32150 | 141.02806 | 30108 ft | 375 kts | 214° |
| 2026-05-06 03:55 | 38.27463 | 141.00081 | 30122 ft | 369 kts | 213° |
| 2026-05-06 03:55 | 38.22719 | 140.97316 | 30109 ft | 372 kts | 213° |
| 2026-05-06 03:56 | 38.18038 | 140.94598 | 30116 ft | 375 kts | 214° |
| 2026-05-06 03:56 | 38.13369 | 140.91853 | 30106 ft | 368 kts | 216° |
| 2026-05-06 03:57 | 38.08936 | 140.88736 | 30116 ft | 362 kts | 219° |
| 2026-05-06 03:57 | 38.04646 | 140.85512 | 30099 ft | 360 kts | 220° |
| 2026-05-06 03:58 | 38.00342 | 140.82294 | 30117 ft | 359 kts | 219° |
| 2026-05-06 03:58 | 37.96037 | 140.79109 | 30119 ft | 360 kts | 219° |
| 2026-05-06 03:59 | 37.91678 | 140.75903 | 30117 ft | 358 kts | 218° |
| 2026-05-06 03:59 | 37.87384 | 140.72768 | 30124 ft | 358 kts | 219° |
| 2026-05-06 04:00 | 37.83039 | 140.69592 | 30129 ft | 361 kts | 218° |
| 2026-05-06 04:00 | 37.78711 | 140.66447 | 30133 ft | 362 kts | 219° |
| 2026-05-06 04:01 | 37.74215 | 140.63585 | 30132 ft | 368 kts | 211° |
| 2026-05-06 04:01 | 37.69190 | 140.61769 | 30131 ft | 377 kts | 204° |
| 2026-05-06 04:02 | 37.64077 | 140.60356 | 30132 ft | 377 kts | 204° |
| 2026-05-06 04:02 | 37.58931 | 140.58945 | 30136 ft | 383 kts | 204° |
| 2026-05-06 04:03 | 37.53817 | 140.57515 | 30145 ft | 377 kts | 205° |
| 2026-05-06 04:03 | 37.48637 | 140.56033 | 30144 ft | 380 kts | 204° |
| 2026-05-06 04:04 | 37.43504 | 140.54565 | 30153 ft | 378 kts | 205° |
| 2026-05-06 04:04 | 37.38401 | 140.53107 | 30162 ft | 377 kts | 204° |
| 2026-05-06 04:05 | 37.33336 | 140.51662 | 30166 ft | 378 kts | 204° |
| 2026-05-06 04:05 | 37.28218 | 140.50207 | 30170 ft | 380 kts | 204° |
| 2026-05-06 04:06 | 37.23124 | 140.48769 | 29954 ft | 368 kts | 204° |
| 2026-05-06 04:06 | 37.20660 | 140.48077 | 29479 ft | 361 kts | 205° |
| 2026-05-06 04:06 | 37.18200 | 140.47380 | 28920 ft | 358 kts | 205° |
| 2026-05-06 04:07 | 37.15775 | 140.46686 | 28465 ft | 365 kts | 205° |
| 2026-05-06 04:07 | 37.13274 | 140.45950 | 27938 ft | 379 kts | 204° |
| 2026-05-06 04:07 | 37.10695 | 140.45209 | 27367 ft | 377 kts | 203° |
| 2026-05-06 04:07 | 37.08139 | 140.44485 | 26793 ft | 373 kts | 202° |
| 2026-05-06 04:08 | 37.05624 | 140.43779 | 26215 ft | 370 kts | 202° |
| 2026-05-06 04:08 | 37.03103 | 140.43072 | 25636 ft | 366 kts | 202° |
| 2026-05-06 04:08 | 37.00634 | 140.42380 | 25079 ft | 363 kts | 202° |
| 2026-05-06 04:08 | 36.98162 | 140.41685 | 24500 ft | 360 kts | 201° |
| 2026-05-06 04:09 | 36.95719 | 140.40997 | 23949 ft | 357 kts | 201° |
| 2026-05-06 04:09 | 36.93332 | 140.40324 | 23391 ft | 354 kts | 201° |
| 2026-05-06 04:09 | 36.90879 | 140.39630 | 22808 ft | 353 kts | 201° |
| 2026-05-06 04:09 | 36.88484 | 140.38951 | 22249 ft | 351 kts | 200° |
| 2026-05-06 04:10 | 36.86124 | 140.38284 | 21677 ft | 351 kts | 200° |
| 2026-05-06 04:10 | 36.83751 | 140.37613 | 21106 ft | 350 kts | 199° |
| 2026-05-06 04:10 | 36.81395 | 140.36942 | 20537 ft | 349 kts | 199° |
| 2026-05-06 04:10 | 36.79913 | 140.36520 | 20166 ft | 349 kts | 198° |
| 2026-05-06 04:11 | 36.77536 | 140.35844 | 19582 ft | 349 kts | 198° |
| 2026-05-06 04:11 | 36.75160 | 140.35170 | 19006 ft | 348 kts | 197° |
| 2026-05-06 04:11 | 36.72804 | 140.34544 | 18434 ft | 349 kts | 195° |
| 2026-05-06 04:11 | 36.70395 | 140.34023 | 17864 ft | 350 kts | 193° |
| 2026-05-06 04:12 | 36.67994 | 140.33563 | 17290 ft | 350 kts | 191° |
| 2026-05-06 04:12 | 36.65606 | 140.33118 | 16727 ft | 350 kts | 191° |
| 2026-05-06 04:12 | 36.63196 | 140.32661 | 16258 ft | 347 kts | 191° |
| 2026-05-06 04:12 | 36.60804 | 140.32196 | 16176 ft | 354 kts | 191° |
| 2026-05-06 04:13 | 36.58360 | 140.31714 | 16161 ft | 357 kts | 191° |
| 2026-05-06 04:13 | 36.55913 | 140.31227 | 16168 ft | 358 kts | 191° |
| 2026-05-06 04:13 | 36.53458 | 140.30737 | 16160 ft | 356 kts | 192° |
| 2026-05-06 04:13 | 36.50979 | 140.30243 | 16164 ft | 358 kts | 192° |
| 2026-05-06 04:14 | 36.48516 | 140.29752 | 16168 ft | 355 kts | 192° |
| 2026-05-06 04:14 | 36.46095 | 140.29234 | 16170 ft | 356 kts | 194° |
| 2026-05-06 04:14 | 36.43761 | 140.28296 | 16164 ft | 351 kts | 208° |
| 2026-05-06 04:14 | 36.41791 | 140.26533 | 16160 ft | 347 kts | 227° |
| 2026-05-06 04:15 | 36.40366 | 140.24123 | 16166 ft | 344 kts | 242° |
| 2026-05-06 04:15 | 36.39393 | 140.21403 | 16169 ft | 344 kts | 250° |
| 2026-05-06 04:15 | 36.38703 | 140.18571 | 16164 ft | 344 kts | 255° |
| 2026-05-06 04:15 | 36.38154 | 140.15715 | 16162 ft | 345 kts | 256° |
| 2026-05-06 04:16 | 36.37633 | 140.12810 | 16162 ft | 345 kts | 257° |
| 2026-05-06 04:16 | 36.37101 | 140.09888 | 16161 ft | 344 kts | 256° |
| 2026-05-06 04:16 | 36.36527 | 140.07040 | 16161 ft | 345 kts | 253° |
| 2026-05-06 04:16 | 36.35593 | 140.04303 | 16157 ft | 344 kts | 239° |
| 2026-05-06 04:17 | 36.33967 | 140.02084 | 16156 ft | 348 kts | 219° |
| 2026-05-06 04:17 | 36.31869 | 140.00626 | 16156 ft | 352 kts | 204° |
| 2026-05-06 04:17 | 36.29525 | 139.99748 | 15878 ft | 351 kts | 194° |
| 2026-05-06 04:17 | 36.27076 | 139.99327 | 15272 ft | 353 kts | 187° |
| 2026-05-06 04:18 | 36.24633 | 139.99171 | 14660 ft | 353 kts | 184° |
| 2026-05-06 04:18 | 36.22185 | 139.99098 | 14090 ft | 353 kts | 182° |
| 2026-05-06 04:18 | 36.19727 | 139.99017 | 13518 ft | 352 kts | 182° |
| 2026-05-06 04:18 | 36.17294 | 139.98903 | 12950 ft | 351 kts | 183° |
| 2026-05-06 04:19 | 36.14845 | 139.98764 | 12475 ft | 346 kts | 183° |
| 2026-05-06 04:19 | 36.12465 | 139.98614 | 12020 ft | 342 kts | 183° |
| 2026-05-06 04:19 | 36.10098 | 139.98459 | 11556 ft | 338 kts | 183° |
| 2026-05-06 04:19 | 36.07768 | 139.98337 | 11182 ft | 331 kts | 180° |
| 2026-05-06 04:20 | 36.05534 | 139.98601 | 11008 ft | 318 kts | 168° |
| 2026-05-06 04:20 | 36.03450 | 139.99387 | 10885 ft | 305 kts | 160° |
| 2026-05-06 04:20 | 36.01537 | 140.00334 | 10751 ft | 293 kts | 158° |
| 2026-05-06 04:20 | 35.99690 | 140.01283 | 10605 ft | 282 kts | 158° |
| 2026-05-06 04:21 | 35.97898 | 140.02162 | 10482 ft | 271 kts | 160° |
| 2026-05-06 04:21 | 35.96137 | 140.02982 | 10152 ft | 269 kts | 160° |
| 2026-05-06 04:21 | 35.94379 | 140.03778 | 9788 ft | 268 kts | 161° |
| 2026-05-06 04:21 | 35.92623 | 140.04565 | 9499 ft | 264 kts | 161° |
| 2026-05-06 04:22 | 35.90912 | 140.05331 | 9179 ft | 262 kts | 161° |
| 2026-05-06 04:22 | 35.89204 | 140.06100 | 8775 ft | 263 kts | 162° |
| 2026-05-06 04:22 | 35.87487 | 140.06876 | 8425 ft | 262 kts | 162° |
| 2026-05-06 04:23 | 35.84069 | 140.08414 | 7734 ft | 260 kts | 163° |
| 2026-05-06 04:23 | 35.82359 | 140.09181 | 7407 ft | 258 kts | 163° |
| 2026-05-06 04:23 | 35.80684 | 140.09933 | 7105 ft | 256 kts | 163° |
| 2026-05-06 04:23 | 35.79011 | 140.10686 | 6741 ft | 255 kts | 163° |
| 2026-05-06 04:24 | 35.77331 | 140.11443 | 6410 ft | 254 kts | 163° |
| 2026-05-06 04:24 | 35.75679 | 140.12187 | 6196 ft | 247 kts | 163° |
| 2026-05-06 04:24 | 35.74123 | 140.12889 | 6094 ft | 235 kts | 163° |
| 2026-05-06 04:24 | 35.72578 | 140.13586 | 5661 ft | 239 kts | 162° |
| 2026-05-06 04:25 | 35.71073 | 140.14540 | 5055 ft | 252 kts | 147° |
| 2026-05-06 04:25 | 35.69772 | 140.16003 | 4661 ft | 254 kts | 137° |
| 2026-05-06 04:25 | 35.68562 | 140.17552 | 4480 ft | 249 kts | 137° |
| 2026-05-06 04:25 | 35.67339 | 140.19073 | 4472 ft | 251 kts | 139° |
| 2026-05-06 04:26 | 35.66056 | 140.20569 | 4473 ft | 251 kts | 143° |
| 2026-05-06 04:26 | 35.64650 | 140.21670 | 4468 ft | 232 kts | 159° |
| 2026-05-06 04:26 | 35.63173 | 140.22298 | 4473 ft | 217 kts | 166° |
| 2026-05-06 04:26 | 35.61716 | 140.22765 | 4475 ft | 212 kts | 174° |
| 2026-05-06 04:27 | 35.60251 | 140.22731 | 4478 ft | 210 kts | 194° |
| 2026-05-06 04:27 | 35.58974 | 140.21950 | 4404 ft | 206 kts | 219° |
| 2026-05-06 04:27 | 35.58044 | 140.20609 | 4087 ft | 210 kts | 236° |
| 2026-05-06 04:27 | 35.57360 | 140.19025 | 3974 ft | 212 kts | 246° |
| 2026-05-06 04:28 | 35.57079 | 140.17218 | 3974 ft | 216 kts | 264° |
| 2026-05-06 04:28 | 35.57056 | 140.15356 | 3972 ft | 219 kts | 266° |
| 2026-05-06 04:28 | 35.57048 | 140.13512 | 3969 ft | 209 kts | 266° |
| 2026-05-06 04:28 | 35.57042 | 140.11791 | 3968 ft | 196 kts | 266° |
| 2026-05-06 04:29 | 35.57037 | 140.10123 | 3971 ft | 195 kts | 266° |
| 2026-05-06 04:29 | 35.57033 | 140.08432 | 3971 ft | 197 kts | 266° |
| 2026-05-06 04:29 | 35.57032 | 140.06755 | 3967 ft | 195 kts | 266° |
| 2026-05-06 04:29 | 35.57028 | 140.05061 | 3801 ft | 198 kts | 266° |
| 2026-05-06 04:30 | 35.57025 | 140.03374 | 3555 ft | 198 kts | 265° |
| 2026-05-06 04:30 | 35.57023 | 140.01686 | 3310 ft | 197 kts | 265° |
| 2026-05-06 04:30 | 35.57019 | 140.00001 | 3070 ft | 196 kts | 266° |
| 2026-05-06 04:30 | 35.57016 | 139.98332 | 2825 ft | 195 kts | 266° |
| 2026-05-06 04:31 | 35.57013 | 139.96687 | 2582 ft | 193 kts | 265° |
| 2026-05-06 04:31 | 35.57007 | 139.95029 | 2335 ft | 192 kts | 265° |
| 2026-05-06 04:31 | 35.57003 | 139.93390 | 2090 ft | 192 kts | 265° |
| 2026-05-06 04:31 | 35.56998 | 139.91745 | 1845 ft | 191 kts | 265° |
| 2026-05-06 04:32 | 35.56994 | 139.90143 | 1620 ft | 187 kts | 266° |
| 2026-05-06 04:32 | 35.56991 | 139.88579 | 1381 ft | 176 kts | 265° |
| 2026-05-06 04:32 | 35.56988 | 139.87114 | 1154 ft | 165 kts | 265° |
| 2026-05-06 04:32 | 35.56982 | 139.85747 | 962 ft | 151 kts | 265° |
| 2026-05-06 04:33 | 35.56830 | 139.84561 | 1063 ft | 140 kts | 240° |
| 2026-05-06 04:33 | 35.56160 | 139.83713 | 945 ft | 142 kts | 205° |
| 2026-05-06 04:33 | 35.55196 | 139.83328 | 466 ft | 143 kts | 204° |
| 2026-05-06 04:33 | 35.54423 | 139.82617 | 173 ft | 136 kts | 221° |
| 2026-05-06 04:34 | 35.53764 | 139.81869 | 9 ft | 122 kts | 220° |
| 2026-05-06 04:34 | 35.53268 | 139.81332 | 8 ft | 62 kts | 223° |
| 2026-05-06 04:34 | 35.53034 | 139.81070 | 8 ft | 30 kts | 226° |
| 2026-05-06 04:34 | 35.52953 | 139.80908 | 8 ft | 11 kts | 244° |
| 2026-05-06 04:35 | 35.52918 | 139.80812 | 8 ft | 12 kts | 247° |
| 2026-05-06 04:35 | 35.52885 | 139.80719 | 8 ft | 11 kts | 246° |
| 2026-05-06 04:35 | 35.52885 | 139.80632 | 8 ft | 10 kts | 298° |
| 2026-05-06 04:35 | 35.52954 | 139.80557 | 8 ft | 14 kts | 328° |
| 2026-05-06 04:36 | 35.53043 | 139.80495 | 8 ft | 14 kts | 330° |
| 2026-05-06 04:36 | 35.53133 | 139.80431 | 8 ft | 17 kts | 329° |
| 2026-05-06 04:36 | 35.53248 | 139.80348 | 8 ft | 21 kts | 331° |
| 2026-05-06 04:36 | 35.53386 | 139.80250 | 8 ft | 23 kts | 329° |
| 2026-05-06 04:37 | 35.53527 | 139.80151 | 8 ft | 22 kts | 330° |
| 2026-05-06 04:37 | 35.53660 | 139.80057 | 8 ft | 18 kts | 330° |
| 2026-05-06 04:37 | 35.53698 | 139.79942 | 10 ft | 15 kts | 246° |
| 2026-05-06 04:37 | 35.53633 | 139.79803 | 12 ft | 21 kts | 239° |
| 2026-05-06 04:38 | 35.53560 | 139.79654 | 14 ft | 19 kts | 240° |
| 2026-05-06 04:38 | 35.53499 | 139.79521 | 17 ft | 16 kts | 240° |
| 2026-05-06 04:38 | 35.53446 | 139.79411 | 19 ft | 14 kts | 239° |
| 2026-05-06 04:38 | 35.53401 | 139.79314 | 21 ft | 12 kts | 241° |
| 2026-05-06 04:39 | 35.53373 | 139.79210 | 19 ft | 12 kts | 278° |
| 2026-05-06 04:39 | 35.53413 | 139.79123 | 21 ft | 11 kts | 325° |
| 2026-05-06 04:39 | 35.53517 | 139.79048 | 25 ft | 23 kts | 330° |
| 2026-05-06 04:39 | 35.53666 | 139.78943 | 29 ft | 24 kts | 329° |
| 2026-05-06 04:40 | 35.53810 | 139.78842 | 30 ft | 22 kts | 330° |
| 2026-05-06 04:40 | 35.53945 | 139.78746 | 30 ft | 22 kts | 329° |
| 2026-05-06 04:40 | 35.54078 | 139.78648 | 28 ft | 22 kts | 332° |
| 2026-05-06 04:40 | 35.54214 | 139.78557 | 27 ft | 22 kts | 329° |
| 2026-05-06 04:41 | 35.54353 | 139.78455 | 23 ft | 23 kts | 329° |
| 2026-05-06 04:41 | 35.54495 | 139.78354 | 22 ft | 23 kts | 329° |
| 2026-05-06 04:41 | 35.54635 | 139.78253 | 21 ft | 23 kts | 329° |
| 2026-05-06 04:41 | 35.54773 | 139.78157 | 22 ft | 21 kts | 330° |
| 2026-05-06 04:42 | 35.54896 | 139.78069 | 25 ft | 19 kts | 330° |
| 2026-05-06 04:42 | 35.55007 | 139.77992 | 28 ft | 16 kts | 330° |
| 2026-05-06 04:42 | 35.55101 | 139.77925 | 30 ft | 14 kts | 330° |
| 2026-05-06 04:42 | 35.55185 | 139.77873 | 31 ft | 12 kts | 350° |
| 2026-05-06 04:43 | 35.55245 | 139.77920 | 32 ft | 10 kts | 57° |
| 2026-05-06 04:43 | 35.55242 | 139.77988 | 32 ft | 8 kts | 142° |
| 2026-05-06 04:43 | 35.55200 | 139.78021 | 32 ft | 4 kts | 150° |
| 2026-05-06 04:43 | 35.55199 | 139.78021 | 32 ft | 0 kts | 150° |